Time;durP1;ratioP1;P1;durP2;ratioP2;P2;SDS_P1;SDS_P2;PMS_P1;PMS_P2;Temp;Humidity;BMP_temperature;BMP_pressure;BME280_temperature;BME280_humidity;BME280_pressure;Samples;Min_cycle;Max_cycle;Signal;HPM_P1;HPM_P2
2023/07/16 00:01:45;;;;;;;9.27;3.65;;;;;;;;;;4997504;28;19925;-84
2023/07/16 00:04:11;;;;;;;;;;;;;;;;;;4985775;28;20041;-85
2023/07/16 00:06:37;;;;;;;9.98;3.38;;;;;;;;;;5021249;28;19921;-86
2023/07/16 00:09:03;;;;;;;;;;;;;;;;;;4992155;28;20034;-86
2023/07/16 00:11:29;;;;;;;11.05;3.08;;;;;;;;;;5008773;28;19933;-86
2023/07/16 00:13:56;;;;;;;9.40;3.15;;;;;;;;;;4971866;28;20080;-86
2023/07/16 00:16:22;;;;;;;;;;;;;;;;;;4963902;28;20045;-87
2023/07/16 00:18:48;;;;;;;9.80;2.88;;;;;;;;;;5024954;28;19921;-87
2023/07/16 00:21:13;;;;;;;;;;;;;;;;;;4992245;28;20444;-87
2023/07/16 00:23:40;;;;;;;8.82;2.85;;;;;;;;;;4976342;28;19921;-86
2023/07/16 00:26:05;;;;;;;;;;;;;;;;;;4992592;28;20095;-87
2023/07/16 00:28:32;;;;;;;8.43;3.03;;;;;;;;;;4973668;28;19969;-86
2023/07/16 00:30:57;;;;;;;;;;;;;;;;;;4973730;28;20082;-87
2023/07/16 00:33:23;;;;;;;9.70;2.88;;;;;;;;;;5003208;28;19956;-85
2023/07/16 00:35:49;;;;;;;;;;;;;;;;;;4991827;28;20050;-87
2023/07/16 00:38:18;;;;;;;7.88;2.80;;;;;;;;;;5024770;28;19947;-86
2023/07/16 00:40:44;;;;;;;9.43;2.83;;;;;;;;;;4988404;28;20136;-85
2023/07/16 00:43:11;;;;;;;9.95;3.05;;;;;;;;;;4989497;28;20134;-85
2023/07/16 00:45:37;;;;;;;12.98;3.42;;;;;;;;;;4976756;28;20046;-89
2023/07/16 00:48:05;;;;;;;9.15;3.10;;;;;;;;;;4973126;28;20096;-84
2023/07/16 00:50:33;;;;;;;7.97;2.88;;;;;;;;;;5019820;28;20050;-85
2023/07/16 00:53:00;;;;;;;10.27;3.35;;;;;;;;;;4975036;28;20061;-85
2023/07/16 00:55:26;;;;;;;10.90;3.35;;;;;;;;;;5003368;28;20047;-84
2023/07/16 00:57:52;;;;;;;;;;;;;;;;;;4980375;28;20050;-84
2023/07/16 01:00:18;;;;;;;10.10;3.03;;;;;;;;;;5009075;28;19922;-83
2023/07/16 01:02:44;;;;;;;;;;;;;;;;;;4977161;28;20111;-84
2023/07/16 01:05:10;;;;;;;8.32;3.17;;;;;;;;;;4990023;28;20328;-84
2023/07/16 01:07:36;;;;;;;;;;;;;;;;;;4986391;28;20046;-84
2023/07/16 01:10:02;;;;;;;10.20;3.60;;;;;;;;;;4973167;28;19974;-83
2023/07/16 01:12:29;;;;;;;9.68;4.25;;;;;;;;;;4973236;28;20054;-83
2023/07/16 01:14:56;;;;;;;9.70;4.47;;;;;;;;;;5000792;28;20068;-84
2023/07/16 01:17:23;;;;;;;11.63;4.38;;;;;;;;;;4995048;28;20038;-84
2023/07/16 01:19:48;;;;;;;;;;;;;;;;;;4940807;28;20053;-85
2023/07/16 01:22:33;;;;;;;13.65;4.43;;;;;;;;;;4973109;28;19922;-86
2023/07/16 01:25:29;;;;;;;9.93;4.20;;;;;;;;;;4990061;28;20496;-89
2023/07/16 01:28:22;;;;;;;14.40;4.00;;;;;;;;;;4997622;28;20093;-88
2023/07/16 01:30:49;;;;;;;11.25;4.30;;;;;;;;;;5004762;28;20113;-88
2023/07/16 01:33:17;;;;;;;9.98;4.20;;;;;;;;;;4953124;28;20050;-88
2023/07/16 01:35:43;;;;;;;11.00;3.70;;;;;;;;;;4977253;28;20042;-87
2023/07/16 01:38:10;;;;;;;12.65;4.07;;;;;;;;;;4977509;28;20073;-87
2023/07/16 01:40:36;;;;;;;11.65;4.05;;;;;;;;;;5006609;28;20140;-88
2023/07/16 01:43:02;;;;;;;;;;;;;;;;;;4942201;28;20047;-88
2023/07/16 01:45:28;;;;;;;8.48;3.58;;;;;;;;;;4990135;28;19928;-88
2023/07/16 01:47:54;;;;;;;;;;;;;;;;;;4990032;28;20054;-89
2023/07/16 01:50:20;;;;;;;13.68;3.63;;;;;;;;;;4990081;28;19926;-88
2023/07/16 01:52:46;;;;;;;;;;;;;;;;;;5007206;28;20085;-89
2023/07/16 01:55:12;;;;;;;7.28;3.05;;;;;;;;;;4989999;28;19980;-88
2023/07/16 01:57:38;;;;;;;;;;;;;;;;;;5006540;28;20484;-89
2023/07/16 02:00:04;;;;;;;11.95;3.47;;;;;;;;;;5003946;28;19922;-87
2023/07/16 02:02:30;;;;;;;10.18;3.10;;;;;;;;;;4993297;28;20175;-89
2023/07/16 02:04:56;;;;;;;;;;;;;;;;;;5000746;28;20042;-88
2023/07/16 02:07:24;;;;;;;10.73;3.63;;;;;;;;;;5005640;28;19921;-89
2023/07/16 02:09:50;;;;;;;10.32;4.32;;;;;;;;;;4972792;28;20159;-89
2023/07/16 02:12:16;;;;;;;;;;;;;;;;;;4973531;28;20078;-91
2023/07/16 02:14:42;;;;;;;13.63;3.50;;;;;;;;;;5006233;28;19921;-89
2023/07/16 02:17:08;;;;;;;;;;;;;;;;;;4990219;28;20074;-89
2023/07/16 02:19:34;;;;;;;11.20;3.58;;;;;;;;;;4990065;28;19929;-88
2023/07/16 02:22:00;;;;;;;;;;;;;;;;;;4974498;28;20042;-89
2023/07/16 02:24:26;;;;;;;9.23;3.30;;;;;;;;;;4990144;28;19921;-89
2023/07/16 02:26:52;;;;;;;;;;;;;;;;;;4990545;28;20133;-89
2023/07/16 02:29:18;;;;;;;11.85;3.10;;;;;;;;;;4989598;28;20402;-88
2023/07/16 02:31:45;;;;;;;;;;;;;;;;;;4942131;28;20047;-89
2023/07/16 02:34:12;;;;;;;11.90;3.30;;;;;;;;;;5005429;28;20409;-89
2023/07/16 02:36:38;;;;;;;14.65;3.47;;;;;;;;;;4989175;28;20062;-88
2023/07/16 02:39:04;;;;;;;11.68;3.33;;;;;;;;;;5006069;28;20089;-87
2023/07/16 02:41:30;;;;;;;15.02;3.95;;;;;;;;;;4973532;28;20051;-88
2023/07/16 02:43:56;;;;;;;;;;;;;;;;;;4990987;28;20136;-89
2023/07/16 02:46:22;;;;;;;10.20;3.42;;;;;;;;;;4976724;28;20018;-87
2023/07/16 02:48:48;;;;;;;;;;;;;;;;;;4993095;28;20039;-87
2023/07/16 02:51:14;;;;;;;10.30;3.50;;;;;;;;;;4992179;28;20005;-87
2023/07/16 02:53:40;;;;;;;;;;;;;;;;;;4996991;28;20042;-88
2023/07/16 02:56:06;;;;;;;11.20;3.70;;;;;;;;;;5007057;28;19922;-88
2023/07/16 02:58:32;;;;;;;;;;;;;;;;;;4975421;28;20057;-88
2023/07/16 03:00:58;;;;;;;11.02;3.60;;;;;;;;;;4991901;28;19922;-90
2023/07/16 03:03:24;;;;;;;;;;;;;;;;;;4990870;28;20039;-87
2023/07/16 03:05:50;;;;;;;12.02;4.03;;;;;;;;;;4979024;28;19974;-88
2023/07/16 03:08:16;;;;;;;;;;;;;;;;;;4991528;28;20046;-88
2023/07/16 03:10:42;;;;;;;11.15;3.90;;;;;;;;;;4997271;28;20012;-88
2023/07/16 03:13:08;;;;;;;;;;;;;;;;;;4984742;28;20054;-88
2023/07/16 03:15:34;;;;;;;11.73;4.47;;;;;;;;;;5027990;28;19974;-86
2023/07/16 03:18:00;;;;;;;;;;;;;;;;;;4985931;28;20054;-90
2023/07/16 03:20:26;;;;;;;8.43;3.80;;;;;;;;;;4975947;28;19922;-88
2023/07/16 03:22:52;;;;;;;;;;;;;;;;;;4995020;28;20047;-88
2023/07/16 03:25:18;;;;;;;9.52;3.83;;;;;;;;;;5010113;28;19922;-88
2023/07/16 03:27:44;;;;;;;;;;;;;;;;;;4986133;28;20077;-88
2023/07/16 03:30:10;;;;;;;10.23;3.80;;;;;;;;;;4992161;28;19965;-88
2023/07/16 03:32:36;;;;;;;;;;;;;;;;;;4990535;28;20046;-88
2023/07/16 03:35:02;;;;;;;15.88;4.20;;;;;;;;;;4978235;28;19928;-89
2023/07/16 03:37:28;;;;;;;14.13;3.75;;;;;;;;;;4977874;28;20088;-88
2023/07/16 03:39:54;;;;;;;;;;;;;;;;;;4994976;28;20053;-87
2023/07/16 03:42:22;;;;;;;15.30;3.97;;;;;;;;;;4977519;28;19922;-88
2023/07/16 03:44:48;;;;;;;11.10;3.95;;;;;;;;;;4978778;28;20125;-88
2023/07/16 03:47:14;;;;;;;;;;;;;;;;;;4974896;28;20094;-87
2023/07/16 03:49:40;;;;;;;9.40;3.53;;;;;;;;;;4991343;28;19977;-87
2023/07/16 03:52:06;;;;;;;11.18;3.75;;;;;;;;;;4975243;28;20076;-88
2023/07/16 03:54:32;;;;;;;11.63;4.13;;;;;;;;;;4974890;28;20058;-88
2023/07/16 03:56:58;;;;;;;13.02;3.78;;;;;;;;;;4975078;28;20042;-87
2023/07/16 03:59:24;;;;;;;;;;;;;;;;;;4991041;28;20066;-87
2023/07/16 04:01:50;;;;;;;12.85;4.55;;;;;;;;;;4991580;28;19928;-87
2023/07/16 04:04:16;;;;;;;;;;;;;;;;;;4991217;28;20096;-88
2023/07/16 04:06:42;;;;;;;16.25;4.40;;;;;;;;;;5007687;28;19926;-87
2023/07/16 04:09:08;;;;;;;11.75;3.88;;;;;;;;;;4994881;28;20098;-87
2023/07/16 04:11:34;;;;;;;20.73;4.45;;;;;;;;;;5010558;28;20100;-87
2023/07/16 04:14:00;;;;;;;;;;;;;;;;;;4994953;28;20273;-87
2023/07/16 04:16:26;;;;;;;16.88;4.30;;;;;;;;;;5010383;28;19917;-87
2023/07/16 04:18:52;;;;;;;;;;;;;;;;;;5009924;28;20087;-87
2023/07/16 04:21:18;;;;;;;10.18;3.90;;;;;;;;;;5026506;28;19983;-88
2023/07/16 04:23:44;;;;;;;;;;;;;;;;;;5011058;28;20046;-87
2023/07/16 04:26:10;;;;;;;14.50;4.20;;;;;;;;;;5026638;28;20338;-87
2023/07/16 04:28:36;;;;;;;;;;;;;;;;;;4994244;28;20126;-87
2023/07/16 04:31:02;;;;;;;11.75;3.83;;;;;;;;;;5010167;28;20421;-86
2023/07/16 04:33:28;;;;;;;;;;;;;;;;;;4974989;28;20100;-88
2023/07/16 04:35:54;;;;;;;8.73;3.88;;;;;;;;;;5026265;28;20270;-87
2023/07/16 04:38:20;;;;;;;;;;;;;;;;;;4976793;28;20691;-87
2023/07/16 04:40:46;;;;;;;11.30;4.30;;;;;;;;;;4990701;28;20016;-87
2023/07/16 04:43:12;;;;;;;15.35;5.47;;;;;;;;;;4989053;28;20107;-87
2023/07/16 04:45:39;;;;;;;;;;;;;;;;;;4974831;28;20392;-87
2023/07/16 04:48:06;;;;;;;11.68;5.18;;;;;;;;;;4973804;28;20375;-87
2023/07/16 04:50:32;;;;;;;11.75;4.97;;;;;;;;;;4990152;28;20046;-87
2023/07/16 04:52:58;;;;;;;12.20;5.78;;;;;;;;;;4976133;28;20054;-87
2023/07/16 04:55:24;;;;;;;;;;;;;;;;;;4974300;28;20046;-87
2023/07/16 04:57:53;;;;;;;14.73;4.68;;;;;;;;;;4973733;28;20024;-87
2023/07/16 05:00:19;;;;;;;15.07;4.40;;;;;;;;;;4973821;28;20116;-86
2023/07/16 05:02:45;;;;;;;12.32;3.72;;;;;;;;;;4957600;28;20058;-86
2023/07/16 05:05:11;;;;;;;8.60;3.40;;;;;;;;;;5006250;28;20157;-88
2023/07/16 05:07:37;;;;;;;;;;;;;;;;;;4957606;28;20096;-86
2023/07/16 05:10:03;;;;;;;11.75;3.58;;;;;;;;;;4989864;28;19926;-86
2023/07/16 05:12:29;;;;;;;11.13;3.78;;;;;;;;;;5005434;28;20132;-87
2023/07/16 05:14:55;;;;;;;12.48;4.03;;;;;;;;;;4989567;28;20054;-87
2023/07/16 05:17:22;;;;;;;;;;;;;;;;;;4988773;28;20526;-87
2023/07/16 05:19:49;;;;;;;8.98;4.10;;;;;;;;;;4988457;28;20135;-86
2023/07/16 05:22:15;;;;;;;;;;;;;;;;;;5006833;28;20049;-88
2023/07/16 05:24:41;;;;;;;11.15;3.90;;;;;;;;;;4989933;28;19922;-87
2023/07/16 05:27:07;;;;;;;;;;;;;;;;;;4972999;28;20093;-88
2023/07/16 05:29:33;;;;;;;11.75;3.47;;;;;;;;;;4972917;28;20003;-87
2023/07/16 05:31:59;;;;;;;;;;;;;;;;;;4990144;28;20106;-87
2023/07/16 05:34:25;;;;;;;9.35;3.63;;;;;;;;;;4972624;28;19922;-86
2023/07/16 05:36:50;;;;;;;;;;;;;;;;;;4957834;28;20068;-87
2023/07/16 05:39:17;;;;;;;10.48;3.85;;;;;;;;;;4988983;28;20363;-87
2023/07/16 05:41:43;;;;;;;;;;;;;;;;;;4990032;28;20557;-87
2023/07/16 05:44:09;;;;;;;8.27;3.50;;;;;;;;;;5005859;28;19922;-86
2023/07/16 05:46:34;;;;;;;;;;;;;;;;;;5006126;28;20107;-87
2023/07/16 05:49:01;;;;;;;11.07;3.95;;;;;;;;;;4972861;28;20286;-87
2023/07/16 05:51:26;;;;;;;;;;;;;;;;;;4989617;28;20129;-87
2023/07/16 05:53:53;;;;;;;11.43;4.35;;;;;;;;;;4973375;28;19969;-88
2023/07/16 05:56:18;;;;;;;;;;;;;;;;;;4989526;28;20054;-89
2023/07/16 05:58:45;;;;;;;11.13;4.40;;;;;;;;;;4973268;28;20279;-87
2023/07/16 06:01:10;;;;;;;;;;;;;;;;;;4989987;28;20081;-87
2023/07/16 06:03:37;;;;;;;14.70;4.85;;;;;;;;;;4998172;28;19973;-87
2023/07/16 06:06:02;;;;;;;;;;;;;;;;;;5008229;28;20534;-87
2023/07/16 06:08:29;;;;;;;10.02;4.30;;;;;;;;;;5007319;28;19972;-87
2023/07/16 06:10:54;;;;;;;;;;;;;;;;;;5008782;28;20141;-90
2023/07/16 06:13:21;;;;;;;10.52;4.40;;;;;;;;;;5024943;28;19928;-87
2023/07/16 06:15:46;;;;;;;;;;;;;;;;;;4976792;28;20391;-89
2023/07/16 06:18:13;;;;;;;11.20;3.67;;;;;;;;;;5025376;28;19921;-87
2023/07/16 06:20:38;;;;;;;;;;;;;;;;;;4980160;28;20045;-87
2023/07/16 06:23:05;;;;;;;13.07;4.50;;;;;;;;;;5013088;28;19929;-88
2023/07/16 06:25:30;;;;;;;;;;;;;;;;;;4992681;28;20046;-89
2023/07/16 06:27:57;;;;;;;13.93;4.28;;;;;;;;;;4985694;28;20011;-86
2023/07/16 06:30:22;;;;;;;;;;;;;;;;;;4980080;28;20049;-87
2023/07/16 06:32:49;;;;;;;12.18;3.92;;;;;;;;;;5012175;28;19929;-87
2023/07/16 06:35:14;;;;;;;;;;;;;;;;;;4996226;28;20137;-87
2023/07/16 06:37:40;;;;;;;10.70;4.18;;;;;;;;;;5027621;28;20004;-87
2023/07/16 06:40:07;;;;;;;;;;;;;;;;;;4995968;28;20066;-87
2023/07/16 06:42:33;;;;;;;13.60;4.70;;;;;;;;;;5011582;28;20355;-87
2023/07/16 06:44:59;;;;;;;;;;;;;;;;;;4979781;28;20132;-87
2023/07/16 06:47:25;;;;;;;11.05;4.10;;;;;;;;;;5012044;28;19965;-88
2023/07/16 06:49:51;;;;;;;;;;;;;;;;;;4986669;28;20130;-87
2023/07/16 06:52:20;;;;;;;12.98;4.80;;;;;;;;;;5028291;27;19957;-88
2023/07/16 06:54:46;;;;;;;9.82;4.30;;;;;;;;;;4994039;28;20049;-87
2023/07/16 06:57:12;;;;;;;;;;;;;;;;;;4993489;28;20490;-87
2023/07/16 06:59:38;;;;;;;16.33;4.82;;;;;;;;;;5009699;28;19970;-87
2023/07/16 07:02:05;;;;;;;;;;;;;;;;;;4989824;28;20042;-87
2023/07/16 07:04:31;;;;;;;11.93;4.57;;;;;;;;;;4991821;28;19922;-87
2023/07/16 07:06:57;;;;;;;;;;;;;;;;;;4983205;28;20050;-87
2023/07/16 07:09:23;;;;;;;12.30;4.93;;;;;;;;;;4995375;28;20026;-86
2023/07/16 07:11:49;;;;;;;;;;;;;;;;;;4978329;28;20053;-87
2023/07/16 07:14:15;;;;;;;9.88;4.03;;;;;;;;;;4994563;28;19921;-86
2023/07/16 07:16:41;;;;;;;;;;;;;;;;;;4994289;28;20498;-80
2023/07/16 07:19:07;;;;;;;13.07;4.28;;;;;;;;;;5009157;28;19922;-80
2023/07/16 07:21:33;;;;;;;13.40;4.38;;;;;;;;;;5006893;28;20042;-81
2023/07/16 07:23:59;;;;;;;;;;;;;;;;;;5007743;28;20137;-78
2023/07/16 07:26:25;;;;;;;10.98;4.43;;;;;;;;;;5011299;28;20110;-78
2023/07/16 07:28:51;;;;;;;10.15;4.72;;;;;;;;;;4993138;28;20383;-78
2023/07/16 07:31:17;;;;;;;;;;;;;;;;;;4977436;28;20050;-77
2023/07/16 07:33:43;;;;;;;13.70;4.68;;;;;;;;;;5025949;28;19928;-78
2023/07/16 07:36:09;;;;;;;;;;;;;;;;;;4977830;28;20058;-78
2023/07/16 07:38:35;;;;;;;17.73;5.82;;;;;;;;;;5024896;28;20442;-79
2023/07/16 07:41:02;;;;;;;11.38;4.85;;;;;;;;;;4992659;28;20399;-81
2023/07/16 07:43:28;;;;;;;16.02;4.60;;;;;;;;;;5008934;28;20114;-83
2023/07/16 07:45:54;;;;;;;;;;;;;;;;;;4993346;28;20046;-79
2023/07/16 07:48:21;;;;;;;15.30;4.60;;;;;;;;;;5025109;28;19932;-80
2023/07/16 07:50:47;;;;;;;10.98;4.53;;;;;;;;;;4990895;28;20045;-77
2023/07/16 07:53:14;;;;;;;9.15;4.25;;;;;;;;;;4989754;28;20505;-78
2023/07/16 07:55:41;;;;;;;14.85;4.47;;;;;;;;;;4981612;28;20406;-79
2023/07/16 07:58:07;;;;;;;15.85;4.50;;;;;;;;;;4984626;28;20127;-82
2023/07/16 08:00:34;;;;;;;10.93;4.05;;;;;;;;;;5005487;28;20084;-76
2023/07/16 08:03:00;;;;;;;11.68;4.40;;;;;;;;;;4988499;28;20062;-81
2023/07/16 08:05:26;;;;;;;;;;;;;;;;;;4941276;28;20069;-84
2023/07/16 08:07:53;;;;;;;13.77;4.80;;;;;;;;;;5015706;28;19917;-82
2023/07/16 08:10:19;;;;;;;11.02;4.00;;;;;;;;;;4995596;28;20049;-82
2023/07/16 08:12:45;;;;;;;13.25;4.20;;;;;;;;;;4981585;28;20063;-82
2023/07/16 08:15:14;;;;;;;12.40;4.95;;;;;;;;;;4985081;28;20065;-82
2023/07/16 08:17:45;;;;;;;12.00;4.50;;;;;;;;;;4986238;28;20050;-82
2023/07/16 08:20:11;;;;;;;13.02;4.97;;;;;;;;;;4974046;28;20137;-81
2023/07/16 08:22:38;;;;;;;13.18;5.10;;;;;;;;;;4981773;28;20054;-81
2023/07/16 08:25:04;;;;;;;9.50;4.25;;;;;;;;;;4974235;28;21596;-82
2023/07/16 08:27:31;;;;;;;11.30;4.63;;;;;;;;;;4960013;28;20086;-82
2023/07/16 08:29:57;;;;;;;11.85;4.40;;;;;;;;;;4987003;28;20130;-81
2023/07/16 08:32:23;;;;;;;;;;;;;;;;;;4972215;28;20054;-82
2023/07/16 08:34:49;;;;;;;10.63;4.73;;;;;;;;;;4994572;28;20055;-82
2023/07/16 08:37:16;;;;;;;9.32;4.22;;;;;;;;;;4973092;28;20363;-82
2023/07/16 08:39:42;;;;;;;11.00;4.55;;;;;;;;;;4963026;28;20058;-81
2023/07/16 08:42:10;;;;;;;12.30;4.57;;;;;;;;;;4966592;28;20053;-84
2023/07/16 08:44:40;;;;;;;14.07;4.32;;;;;;;;;;4958765;28;20057;-82
2023/07/16 08:47:09;;;;;;;12.43;4.82;;;;;;;;;;4992246;28;20133;-81
2023/07/16 08:49:35;;;;;;;9.15;4.28;;;;;;;;;;4974893;28;20049;-84
2023/07/16 08:52:05;;;;;;;13.63;4.50;;;;;;;;;;4991219;28;20062;-81
2023/07/16 08:54:31;;;;;;;17.52;4.90;;;;;;;;;;4990138;28;20133;-81
2023/07/16 08:56:57;;;;;;;;;;;;;;;;;;4962572;28;20043;-80
2023/07/16 08:59:23;;;;;;;12.25;5.22;;;;;;;;;;5015122;28;20378;-81
2023/07/16 09:01:49;;;;;;;13.02;4.28;;;;;;;;;;4986632;28;20057;-81
2023/07/16 09:04:16;;;;;;;;;;;;;;;;;;5007695;28;20107;-82
2023/07/16 09:06:42;;;;;;;15.48;5.05;;;;;;;;;;4988651;28;20025;-80
2023/07/16 09:09:08;;;;;;;12.02;5.00;;;;;;;;;;4995866;28;20042;-80
2023/07/16 09:11:34;;;;;;;11.98;5.35;;;;;;;;;;4971571;28;20084;-77
2023/07/16 09:14:03;;;;;;;16.13;5.05;;;;;;;;;;4995550;28;20077;-75
2023/07/16 09:16:33;;;;;;;11.18;4.40;;;;;;;;;;4977785;28;20057;-76
2023/07/16 09:19:07;;;;;;;19.00;4.90;;;;;;;;;;4980242;28;20054;-81
2023/07/16 09:21:34;;;;;;;11.75;5.13;;;;;;;;;;4984367;28;20060;-82
2023/07/16 09:24:01;;;;;;;14.55;5.20;;;;;;;;;;4968953;28;20054;-81
2023/07/16 09:26:27;;;;;;;11.25;5.13;;;;;;;;;;4992881;28;20050;-81
2023/07/16 09:28:52;;;;;;;;;;;;;;;;;;4973758;28;20517;-81
2023/07/16 09:31:19;;;;;;;9.48;4.82;;;;;;;;;;5023521;28;19921;-81
2023/07/16 09:33:47;;;;;;;12.82;5.70;;;;;;;;;;4978906;28;20047;-81
2023/07/16 09:36:13;;;;;;;13.65;4.68;;;;;;;;;;4976229;28;20498;-82
2023/07/16 09:38:39;;;;;;;;;;;;;;;;;;4985551;28;20544;-83
2023/07/16 09:41:06;;;;;;;10.18;4.50;;;;;;;;;;4987512;28;19925;-81
2023/07/16 09:43:33;;;;;;;10.68;4.80;;;;;;;;;;5003983;28;20047;-82
2023/07/16 09:45:59;;;;;;;15.95;5.03;;;;;;;;;;4976488;28;20044;-81
2023/07/16 09:48:25;;;;;;;;;;;;;;;;;;4987534;28;20100;-82
2023/07/16 09:50:53;;;;;;;12.38;5.18;;;;;;;;;;5002520;28;19972;-82
2023/07/16 09:53:21;;;;;;;11.18;4.57;;;;;;;;;;4988731;28;20099;-81
2023/07/16 09:55:48;;;;;;;12.75;5.13;;;;;;;;;;4993957;28;20054;-82
2023/07/16 09:58:16;;;;;;;10.35;5.07;;;;;;;;;;4992350;28;20588;-84
2023/07/16 10:00:43;;;;;;;10.35;4.55;;;;;;;;;;4997265;28;20054;-84
2023/07/16 10:03:09;;;;;;;11.63;5.20;;;;;;;;;;4976364;28;20069;-82
2023/07/16 10:05:38;;;;;;;11.80;4.90;;;;;;;;;;4964827;28;20054;-81
2023/07/16 10:08:05;;;;;;;13.60;4.35;;;;;;;;;;4991384;28;20188;-81
2023/07/16 10:10:41;;;;;;;14.30;5.40;;;;;;;;;;5029937;28;20072;-81
2023/07/16 10:13:08;;;;;;;13.50;5.50;;;;;;;;;;4990592;28;20041;-82
2023/07/16 10:15:34;;;;;;;16.23;5.03;;;;;;;;;;4990636;28;20046;-81
2023/07/16 10:18:01;;;;;;;12.73;4.47;;;;;;;;;;4972471;28;20731;-82
2023/07/16 10:20:34;;;;;;;12.23;4.75;;;;;;;;;;4979171;28;20109;-81
2023/07/16 10:23:11;;;;;;;9.73;4.40;;;;;;;;;;4975641;28;20141;-82
2023/07/16 10:25:37;;;;;;;12.38;5.03;;;;;;;;;;4973885;28;20057;-81
2023/07/16 10:28:03;;;;;;;;;;;;;;;;;;4989011;28;20085;-81
2023/07/16 10:30:30;;;;;;;10.20;4.53;;;;;;;;;;4984330;28;19933;-81
2023/07/16 10:32:56;;;;;;;10.80;5.10;;;;;;;;;;4984134;28;20054;-81
2023/07/16 10:35:23;;;;;;;11.90;5.63;;;;;;;;;;4989908;28;20088;-81
2023/07/16 10:37:49;;;;;;;13.43;4.55;;;;;;;;;;4988649;28;20733;-82
2023/07/16 10:40:15;;;;;;;13.20;4.68;;;;;;;;;;4990008;28;20082;-81
2023/07/16 10:42:46;;;;;;;11.00;4.88;;;;;;;;;;4985352;28;20121;-81
2023/07/16 10:45:12;;;;;;;11.30;5.25;;;;;;;;;;4974007;28;20062;-81
2023/07/16 10:47:41;;;;;;;13.50;5.22;;;;;;;;;;5018396;28;20042;-81
2023/07/16 10:50:08;;;;;;;9.68;5.25;;;;;;;;;;4989088;28;20046;-82
2023/07/16 10:52:34;;;;;;;13.75;5.45;;;;;;;;;;5002265;28;20121;-81
2023/07/16 10:55:01;;;;;;;10.57;4.13;;;;;;;;;;4983328;28;20046;-81
2023/07/16 10:57:27;;;;;;;9.00;4.10;;;;;;;;;;4958515;28;20042;-81
2023/07/16 10:59:54;;;;;;;10.90;4.28;;;;;;;;;;4980970;28;20061;-81
2023/07/16 11:02:21;;;;;;;8.27;4.03;;;;;;;;;;5005914;28;20139;-81
2023/07/16 11:04:48;;;;;;;8.20;3.90;;;;;;;;;;5000511;28;20195;-84
2023/07/16 11:07:15;;;;;;;10.27;4.10;;;;;;;;;;4979551;28;20049;-81
2023/07/16 11:09:48;;;;;;;11.48;4.38;;;;;;;;;;4976463;28;20046;-81
2023/07/16 11:12:15;;;;;;;11.07;4.20;;;;;;;;;;4968673;28;20043;-81
2023/07/16 11:14:45;;;;;;;12.30;5.20;;;;;;;;;;4983035;28;20441;-83
2023/07/16 11:17:11;;;;;;;10.02;3.97;;;;;;;;;;5015327;28;20057;-82
2023/07/16 11:19:38;;;;;;;9.98;4.15;;;;;;;;;;4994867;28;20049;-82
2023/07/16 11:22:05;;;;;;;13.77;4.85;;;;;;;;;;4972791;28;20046;-81
2023/07/16 11:24:42;;;;;;;11.10;4.65;;;;;;;;;;4984025;28;20050;-81
2023/07/16 11:27:17;;;;;;;11.15;5.15;;;;;;;;;;4987558;28;20056;-82
2023/07/16 11:29:51;;;;;;;14.77;5.47;;;;;;;;;;4988703;28;20147;-82
2023/07/16 11:32:36;;;;;;;11.82;5.00;;;;;;;;;;4994151;28;20075;-81
2023/07/16 11:35:04;;;;;;;11.02;5.35;;;;;;;;;;5064042;28;20540;-80
2023/07/16 11:37:31;;;;;;;11.95;4.43;;;;;;;;;;5094897;28;20066;-81
2023/07/16 11:39:57;;;;;;;13.88;5.00;;;;;;;;;;5029597;28;20054;-80
2023/07/16 11:42:24;;;;;;;11.30;4.72;;;;;;;;;;5044313;28;20388;-82
2023/07/16 11:44:51;;;;;;;13.05;4.90;;;;;;;;;;4992194;28;20511;-83
2023/07/16 11:47:17;;;;;;;12.88;5.20;;;;;;;;;;4976105;28;20049;-81
2023/07/16 11:49:43;;;;;;;11.52;4.70;;;;;;;;;;5006822;28;20555;-81
2023/07/16 11:52:09;;;;;;;;;;;;;;;;;;5010105;28;20046;-80
2023/07/16 11:54:35;;;;;;;12.48;4.65;;;;;;;;;;5032906;28;20029;-80
2023/07/16 11:57:01;;;;;;;;;;;;;;;;;;5042827;28;20061;-80
2023/07/16 11:59:27;;;;;;;9.10;4.20;;;;;;;;;;5016943;28;20366;-80
2023/07/16 12:01:54;;;;;;;11.70;4.72;;;;;;;;;;4979111;28;20058;-83
2023/07/16 12:04:20;;;;;;;10.68;4.47;;;;;;;;;;4991762;28;20053;-80
2023/07/16 12:06:46;;;;;;;10.38;4.38;;;;;;;;;;5025895;28;20049;-80
2023/07/16 12:09:12;;;;;;;15.15;4.30;;;;;;;;;;5020638;28;20809;-80
2023/07/16 12:11:38;;;;;;;13.38;4.78;;;;;;;;;;4998435;28;20145;-79
2023/07/16 12:14:05;;;;;;;11.40;4.80;;;;;;;;;;4971791;28;20133;-80
2023/07/16 12:16:32;;;;;;;13.32;4.80;;;;;;;;;;4968655;28;20747;-79
2023/07/16 12:18:58;;;;;;;13.23;5.03;;;;;;;;;;5006093;28;20049;-80
2023/07/16 12:21:24;;;;;;;;;;;;;;;;;;4991953;28;20041;-80
2023/07/16 12:23:50;;;;;;;12.55;5.20;;;;;;;;;;5024504;28;19951;-80
2023/07/16 12:26:16;;;;;;;12.77;5.40;;;;;;;;;;4990918;28;20046;-80
2023/07/16 12:28:42;;;;;;;10.10;4.95;;;;;;;;;;4969232;28;20495;-79
2023/07/16 12:31:08;;;;;;;;;;;;;;;;;;4988303;28;20050;-79
2023/07/16 12:33:34;;;;;;;10.85;4.65;;;;;;;;;;5003913;28;19979;-79
2023/07/16 12:36:00;;;;;;;13.90;4.93;;;;;;;;;;4987795;28;20768;-79
2023/07/16 12:38:26;;;;;;;9.27;4.10;;;;;;;;;;4992216;28;20062;-79
2023/07/16 12:40:52;;;;;;;13.05;4.75;;;;;;;;;;4987638;28;20058;-80
2023/07/16 12:43:18;;;;;;;8.30;4.43;;;;;;;;;;4987356;28;20046;-80
2023/07/16 12:45:44;;;;;;;13.15;4.93;;;;;;;;;;5004460;28;20539;-79
2023/07/16 12:48:10;;;;;;;;;;;;;;;;;;5003048;28;20504;-80
2023/07/16 12:50:36;;;;;;;10.13;4.10;;;;;;;;;;5011505;28;19947;-80
2023/07/16 12:53:03;;;;;;;10.20;4.70;;;;;;;;;;4939263;28;20050;-81
2023/07/16 12:55:31;;;;;;;10.50;4.30;;;;;;;;;;4987945;28;20058;-81
2023/07/16 12:57:57;;;;;;;11.05;4.07;;;;;;;;;;4995589;28;20046;-80
2023/07/16 13:00:23;;;;;;;8.88;4.10;;;;;;;;;;4974285;28;20076;-80
2023/07/16 13:02:49;;;;;;;11.55;4.22;;;;;;;;;;4974215;28;20140;-80
2023/07/16 13:05:15;;;;;;;12.48;4.20;;;;;;;;;;4995874;28;20046;-80
2023/07/16 13:07:41;;;;;;;10.98;3.88;;;;;;;;;;4979105;28;20122;-80
2023/07/16 13:10:08;;;;;;;14.30;4.43;;;;;;;;;;4992267;28;20084;-80
2023/07/16 13:12:34;;;;;;;8.82;4.00;;;;;;;;;;4990110;28;20050;-83
2023/07/16 13:15:00;;;;;;;10.10;4.07;;;;;;;;;;5007902;28;20098;-83
2023/07/16 13:17:26;;;;;;;9.65;3.85;;;;;;;;;;4990503;28;20042;-82
2023/07/16 13:19:52;;;;;;;10.73;4.10;;;;;;;;;;4990894;28;20061;-81
2023/07/16 13:22:18;;;;;;;10.45;4.10;;;;;;;;;;4989888;28;20054;-81
2023/07/16 13:24:44;;;;;;;9.65;4.00;;;;;;;;;;5005986;28;20095;-82
2023/07/16 13:27:19;;;;;;;10.93;3.92;;;;;;;;;;4973562;28;20050;-81
2023/07/16 13:29:45;;;;;;;11.82;4.43;;;;;;;;;;4981101;28;20050;-81
2023/07/16 13:32:12;;;;;;;10.65;4.15;;;;;;;;;;4970558;28;20045;-81
2023/07/16 13:34:38;;;;;;;11.27;3.80;;;;;;;;;;5001825;28;20046;-81
2023/07/16 13:37:04;;;;;;;10.70;4.20;;;;;;;;;;4989691;28;20038;-81
2023/07/16 13:39:32;;;;;;;11.93;3.90;;;;;;;;;;4987543;28;20041;-80
2023/07/16 13:41:58;;;;;;;9.80;4.38;;;;;;;;;;4995872;28;20056;-80
2023/07/16 13:44:24;;;;;;;14.25;3.90;;;;;;;;;;4976686;28;20054;-81
2023/07/16 13:46:50;;;;;;;9.15;4.00;;;;;;;;;;4984292;28;20108;-81
2023/07/16 13:49:16;;;;;;;7.50;4.20;;;;;;;;;;4969761;28;20125;-81
2023/07/16 13:51:42;;;;;;;12.88;4.22;;;;;;;;;;4984647;28;20049;-81
2023/07/16 13:54:08;;;;;;;8.82;3.88;;;;;;;;;;4983565;28;20475;-81
2023/07/16 13:56:34;;;;;;;9.10;4.03;;;;;;;;;;4970235;28;20096;-80
2023/07/16 13:59:00;;;;;;;10.63;3.58;;;;;;;;;;4974663;28;20132;-80
2023/07/16 14:01:26;;;;;;;9.27;3.80;;;;;;;;;;4963030;28;20134;-79
2023/07/16 14:03:52;;;;;;;10.40;3.95;;;;;;;;;;5021917;28;20095;-80
2023/07/16 14:06:18;;;;;;;10.68;4.25;;;;;;;;;;4973759;28;20052;-80
2023/07/16 14:08:44;;;;;;;11.27;4.35;;;;;;;;;;4973993;28;20042;-82
2023/07/16 14:11:10;;;;;;;11.85;4.18;;;;;;;;;;4990143;28;20095;-81
2023/07/16 14:13:36;;;;;;;10.63;4.32;;;;;;;;;;4962072;28;20057;-81
2023/07/16 14:16:03;;;;;;;11.63;4.28;;;;;;;;;;4974570;28;20048;-83
2023/07/16 14:18:29;;;;;;;11.38;4.38;;;;;;;;;;4974071;28;20449;-82
2023/07/16 14:20:55;;;;;;;10.27;4.32;;;;;;;;;;4968523;28;20116;-81
2023/07/16 14:23:21;;;;;;;9.63;3.88;;;;;;;;;;4955660;28;20042;-80
2023/07/16 14:25:47;;;;;;;10.32;3.95;;;;;;;;;;4983986;28;20091;-81
2023/07/16 14:28:13;;;;;;;9.55;4.18;;;;;;;;;;4994024;28;20052;-81
2023/07/16 14:30:39;;;;;;;11.50;4.28;;;;;;;;;;4989517;28;20050;-82
2023/07/16 14:33:05;;;;;;;10.95;4.68;;;;;;;;;;4977629;28;20495;-82
2023/07/16 14:35:34;;;;;;;10.27;4.35;;;;;;;;;;4970612;28;20050;-81
2023/07/16 14:38:00;;;;;;;11.52;3.90;;;;;;;;;;4969380;28;20122;-81
2023/07/16 14:40:26;;;;;;;7.35;3.70;;;;;;;;;;4998113;28;20419;-80
2023/07/16 14:42:52;;;;;;;8.80;4.03;;;;;;;;;;4973131;28;20132;-80
2023/07/16 14:45:18;;;;;;;8.88;3.65;;;;;;;;;;4992581;28;20049;-80
2023/07/16 14:47:44;;;;;;;8.43;3.63;;;;;;;;;;5006057;28;20042;-80
2023/07/16 14:50:10;;;;;;;7.88;3.50;;;;;;;;;;4992687;28;20062;-83
2023/07/16 14:52:36;;;;;;;6.85;3.05;;;;;;;;;;4977082;28;20046;-83
2023/07/16 14:55:04;;;;;;;7.80;3.45;;;;;;;;;;4976931;28;20057;-83
2023/07/16 14:57:30;;;;;;;7.90;3.40;;;;;;;;;;4975839;28;20050;-84